Time;durP1;ratioP1;P1;durP2;ratioP2;P2;SDS_P1;SDS_P2;PMS_P1;PMS_P2;Temp;Humidity;BMP_temperature;BMP_pressure;BME280_temperature;BME280_humidity;BME280_pressure;Samples;Min_cycle;Max_cycle;Signal;HPM_P1;HPM_P2
2022/09/29 00:00:39;;;;;;;17.47;10.57;;;8.90;99.90;;;;;;5035046;28;20196;-72
2022/09/29 00:03:06;;;;;;;16.33;10.33;;;8.80;99.90;;;;;;5014243;28;20200;-73
2022/09/29 00:05:33;;;;;;;17.67;10.60;;;8.80;99.90;;;;;;4997131;28;20314;-73
2022/09/29 00:08:01;;;;;;;17.47;10.50;;;8.80;99.90;;;;;;5015166;28;20645;-72
2022/09/29 00:10:28;;;;;;;16.27;10.23;;;8.70;99.90;;;;;;4997450;28;20198;-72
2022/09/29 00:12:55;;;;;;;19.30;10.57;;;8.70;99.90;;;;;;4997607;28;20210;-76
2022/09/29 00:15:21;;;;;;;17.07;10.70;;;8.60;99.90;;;;;;4997343;28;20594;-78
2022/09/29 00:17:48;;;;;;;16.17;10.73;;;8.60;99.90;;;;;;4998363;28;20198;-73
2022/09/29 00:20:36;;;;;;;16.27;10.77;;;8.50;99.90;;;;;;5016270;28;20246;-78
2022/09/29 00:23:03;;;;;;;17.93;11.13;;;8.50;99.90;;;;;;5016910;28;20198;-75
2022/09/29 00:25:30;;;;;;;16.23;10.53;;;8.50;99.90;;;;;;5014210;28;20254;-74
2022/09/29 00:27:57;;;;;;;17.53;10.93;;;8.50;99.90;;;;;;4997394;28;20673;-73
2022/09/29 00:30:24;;;;;;;19.40;11.60;;;8.40;99.90;;;;;;4997295;28;20193;-73
2022/09/29 00:32:50;;;;;;;18.30;11.33;;;8.50;99.90;;;;;;4997079;28;20228;-75
2022/09/29 00:35:17;;;;;;;18.73;10.97;;;8.50;99.90;;;;;;4996792;28;20204;-73
2022/09/29 00:37:44;;;;;;;18.37;10.50;;;8.50;99.90;;;;;;4997784;28;20204;-74
2022/09/29 00:40:11;;;;;;;17.83;11.20;;;8.50;99.90;;;;;;5009960;28;20203;-73
2022/09/29 00:42:38;;;;;;;18.67;11.57;;;8.50;99.90;;;;;;5008430;28;20222;-73
2022/09/29 00:45:16;;;;;;;16.27;10.70;;;8.50;99.90;;;;;;5033896;28;20234;-74
2022/09/29 00:47:47;;;;;;;19.33;11.27;;;8.50;99.90;;;;;;5016559;28;20199;-73
2022/09/29 00:50:39;;;;;;;16.00;10.40;;;8.60;99.90;;;;;;5000422;28;20208;-73
2022/09/29 00:53:11;;;;;;;15.07;10.43;;;8.50;99.90;;;;;;5034136;28;20199;-73
2022/09/29 00:55:49;;;;;;;16.70;10.33;;;8.60;99.90;;;;;;5001046;28;20203;-73
2022/09/29 00:58:38;;;;;;;18.33;10.90;;;8.50;99.90;;;;;;5034205;28;20635;-74
2022/09/29 01:01:06;;;;;;;15.53;10.00;;;8.40;99.90;;;;;;5016105;28;20694;-73
2022/09/29 01:03:42;;;;;;;15.97;10.67;;;8.50;99.90;;;;;;5034048;28;20249;-73
2022/09/29 01:06:23;;;;;;;16.43;10.80;;;8.50;99.90;;;;;;5006744;28;20238;-72
2022/09/29 01:08:52;;;;;;;17.37;10.87;;;8.60;99.90;;;;;;5016193;28;20202;-74
2022/09/29 01:11:21;;;;;;;17.73;10.33;;;8.50;99.90;;;;;;5016215;28;20591;-79
2022/09/29 01:13:49;;;;;;;17.37;11.00;;;8.60;99.90;;;;;;4999940;28;20222;-80
2022/09/29 01:16:16;;;;;;;16.10;10.20;;;8.50;99.90;;;;;;5016133;28;20202;-81
2022/09/29 01:18:44;;;;;;;15.07;10.23;;;8.60;99.90;;;;;;5016271;28;20195;-73
2022/09/29 01:21:35;;;;;;;18.53;11.03;;;8.70;99.90;;;;;;5003754;28;20203;-72
2022/09/29 01:24:24;;;;;;;16.93;10.33;;;8.60;99.90;;;;;;4996505;28;20204;-72
2022/09/29 01:27:10;;;;;;;16.47;11.17;;;8.60;99.90;;;;;;4996098;28;20580;-81
2022/09/29 01:29:54;;;;;;;17.40;10.80;;;8.60;99.90;;;;;;4996082;28;20188;-78
2022/09/29 01:32:39;;;;;;;16.73;10.40;;;8.60;99.90;;;;;;5010027;28;20229;-74
2022/09/29 01:35:18;;;;;;;17.50;11.07;;;8.50;99.90;;;;;;5032991;28;20187;-73
2022/09/29 01:38:16;;;;;;;19.83;11.13;;;8.40;99.90;;;;;;5015716;28;20208;-73
2022/09/29 01:41:20;;;;;;;17.90;11.07;;;8.40;99.90;;;;;;4995742;28;20281;-81
2022/09/29 01:43:56;;;;;;;16.23;10.50;;;8.40;99.90;;;;;;4995951;28;20209;-73
2022/09/29 01:46:32;;;;;;;19.77;11.03;;;8.40;99.90;;;;;;4995821;28;20226;-73
2022/09/29 01:49:03;;;;;;;17.13;10.93;;;8.50;99.90;;;;;;4995615;28;20193;-81
2022/09/29 01:51:39;;;;;;;15.37;10.47;;;8.40;99.90;;;;;;5013563;28;20608;-78
2022/09/29 01:54:14;;;;;;;18.23;11.10;;;8.40;99.90;;;;;;4995976;28;20546;-74
2022/09/29 01:56:50;;;;;;;16.43;10.53;;;8.40;99.90;;;;;;4996123;28;20634;-74
2022/09/29 01:59:32;;;;;;;18.10;11.07;;;8.40;99.90;;;;;;4979869;28;20238;-73
2022/09/29 02:02:09;;;;;;;18.13;11.43;;;8.40;99.90;;;;;;4996295;28;20646;-73
2022/09/29 02:05:00;;;;;;;16.00;10.73;;;8.30;99.90;;;;;;4995236;28;20208;-72
2022/09/29 02:07:40;;;;;;;17.37;10.67;;;8.40;99.90;;;;;;4995410;28;20254;-73
2022/09/29 02:10:18;;;;;;;18.50;11.00;;;8.40;99.90;;;;;;4995470;28;20196;-73
2022/09/29 02:12:47;;;;;;;18.57;11.17;;;8.30;99.90;;;;;;4995636;28;20199;-73
2022/09/29 02:15:21;;;;;;;16.40;10.63;;;8.30;99.90;;;;;;5012987;28;20538;-73
2022/09/29 02:17:52;;;;;;;18.23;10.80;;;8.30;99.90;;;;;;4995511;28;20674;-74
2022/09/29 02:20:21;;;;;;;21.50;11.63;;;8.30;99.90;;;;;;4995899;28;20275;-73
2022/09/29 02:22:48;;;;;;;18.27;11.40;;;8.30;99.90;;;;;;4995697;28;20204;-73
2022/09/29 02:25:17;;;;;;;17.90;10.93;;;8.30;99.90;;;;;;4995732;28;20692;-79
2022/09/29 02:27:46;;;;;;;18.67;11.47;;;8.30;99.90;;;;;;4995426;28;20204;-73
2022/09/29 02:30:13;;;;;;;21.17;11.53;;;8.30;99.90;;;;;;4995370;28;20215;-80
2022/09/29 02:32:40;;;;;;;22.33;11.87;;;8.30;99.90;;;;;;5013191;28;20212;-81
2022/09/29 02:35:10;;;;;;;20.13;11.00;;;8.20;99.90;;;;;;4995108;28;20479;-74
2022/09/29 02:37:42;;;;;;;18.90;11.77;;;8.30;99.90;;;;;;4995200;28;20595;-80
2022/09/29 02:40:21;;;;;;;18.43;10.83;;;8.30;99.90;;;;;;5011815;28;20203;-73
2022/09/29 02:43:20;;;;;;;18.20;11.50;;;8.30;99.90;;;;;;5014132;28;20290;-73
2022/09/29 02:46:22;;;;;;;17.27;10.73;;;8.40;99.90;;;;;;4961406;28;20590;-79
2022/09/29 02:49:01;;;;;;;19.73;11.10;;;8.40;99.90;;;;;;4928333;28;20216;-74
2022/09/29 02:51:40;;;;;;;18.73;11.00;;;8.30;99.90;;;;;;4945843;29;20202;-73
2022/09/29 02:54:21;;;;;;;16.90;10.07;;;8.30;99.90;;;;;;4939780;29;20213;-73
2022/09/29 02:56:51;;;;;;;17.43;10.50;;;8.30;99.90;;;;;;4940101;29;20609;-72
2022/09/29 02:59:26;;;;;;;17.97;10.30;;;8.20;99.90;;;;;;4956242;29;20193;-73
2022/09/29 03:01:55;;;;;;;16.53;9.90;;;8.20;99.90;;;;;;4940459;29;20673;-74
2022/09/29 03:04:25;;;;;;;15.97;10.30;;;8.10;99.90;;;;;;4939978;29;20215;-73
2022/09/29 03:06:52;;;;;;;14.53;9.93;;;8.10;99.90;;;;;;4940326;29;20261;-76
2022/09/29 03:09:19;;;;;;;16.73;10.30;;;8.20;99.90;;;;;;4957252;29;20208;-76
2022/09/29 03:11:46;;;;;;;19.53;11.00;;;8.10;99.90;;;;;;4939873;29;20198;-82
2022/09/29 03:14:13;;;;;;;16.87;10.53;;;8.20;99.90;;;;;;4939631;29;20208;-79
2022/09/29 03:16:40;;;;;;;18.63;10.60;;;8.10;99.90;;;;;;4939536;29;20649;-74
2022/09/29 03:19:07;;;;;;;17.87;10.60;;;8.00;99.90;;;;;;4939904;29;20350;-73
2022/09/29 03:21:34;;;;;;;19.60;10.83;;;8.10;99.90;;;;;;4981440;28;20615;-74
2022/09/29 03:24:01;;;;;;;19.47;11.07;;;8.10;99.90;;;;;;5017948;28;20299;-75
2022/09/29 03:26:29;;;;;;;17.43;10.53;;;8.20;99.90;;;;;;5017727;28;20225;-74
2022/09/29 03:28:56;;;;;;;17.73;10.93;;;8.20;99.90;;;;;;5035682;28;20188;-74
2022/09/29 03:31:22;;;;;;;19.70;11.00;;;8.10;99.90;;;;;;5001679;28;20219;-73
2022/09/29 03:33:50;;;;;;;19.47;11.33;;;8.10;99.90;;;;;;5018036;28;20312;-78
2022/09/29 03:36:17;;;;;;;20.33;11.10;;;8.20;99.90;;;;;;5017533;28;20636;-73
2022/09/29 03:38:45;;;;;;;19.37;11.23;;;8.20;99.90;;;;;;5016858;28;20262;-73
2022/09/29 03:41:12;;;;;;;15.63;9.90;;;8.20;99.90;;;;;;5017525;28;20207;-78
2022/09/29 03:43:39;;;;;;;17.63;10.80;;;8.10;99.90;;;;;;5018066;28;20210;-81
2022/09/29 03:46:06;;;;;;;16.13;10.63;;;8.10;99.90;;;;;;5017896;28;20225;-78
2022/09/29 03:48:34;;;;;;;17.33;10.57;;;8.00;99.90;;;;;;5017719;28;20318;-74
2022/09/29 03:51:01;;;;;;;18.87;11.43;;;8.10;99.90;;;;;;5035770;28;20240;-80
2022/09/29 03:53:28;;;;;;;16.43;10.47;;;8.10;99.90;;;;;;5017118;28;20203;-78
2022/09/29 03:55:55;;;;;;;18.07;10.67;;;8.00;99.90;;;;;;5018056;28;20211;-74
2022/09/29 03:58:23;;;;;;;16.37;10.43;;;8.00;99.90;;;;;;5019450;28;20612;-79
2022/09/29 04:00:50;;;;;;;17.40;10.87;;;8.00;99.90;;;;;;5017609;28;20206;-71
2022/09/29 04:03:17;;;;;;;16.93;10.20;;;8.00;99.90;;;;;;5017265;28;20244;-73
2022/09/29 04:05:46;;;;;;;17.03;11.27;;;8.00;99.90;;;;;;5016619;28;20307;-74
2022/09/29 04:08:14;;;;;;;18.87;11.80;;;7.80;99.90;;;;;;5016997;28;20202;-71
2022/09/29 04:10:41;;;;;;;18.27;11.83;;;7.80;99.90;;;;;;5017121;28;20208;-72
2022/09/29 04:13:08;;;;;;;18.47;12.10;;;7.70;99.90;;;;;;5034774;28;20211;-76
2022/09/29 04:15:35;;;;;;;18.33;11.83;;;7.70;99.90;;;;;;5015338;28;20254;-71
2022/09/29 04:18:03;;;;;;;19.07;12.27;;;7.80;99.90;;;;;;5001139;28;20240;-71
2022/09/29 04:20:31;;;;;;;19.10;12.37;;;7.80;99.90;;;;;;5017218;28;20298;-72
2022/09/29 04:22:59;;;;;;;18.93;11.67;;;7.80;99.90;;;;;;5017120;28;20640;-74
2022/09/29 04:25:27;;;;;;;18.80;11.90;;;7.80;99.90;;;;;;5034266;28;20730;-73
2022/09/29 04:27:54;;;;;;;18.07;11.27;;;7.80;99.90;;;;;;5009487;28;20202;-73
2022/09/29 04:30:20;;;;;;;19.40;11.43;;;7.80;99.90;;;;;;4997354;28;20196;-76
2022/09/29 04:32:47;;;;;;;18.20;11.47;;;7.80;99.90;;;;;;4997228;28;20277;-79
2022/09/29 04:35:14;;;;;;;16.77;11.23;;;7.80;99.90;;;;;;4996809;28;20216;-77
2022/09/29 04:37:41;;;;;;;18.03;11.43;;;7.80;99.90;;;;;;4996992;28;20200;-71
2022/09/29 04:40:08;;;;;;;18.33;11.87;;;7.90;99.90;;;;;;4997241;28;20206;-71
2022/09/29 04:42:35;;;;;;;20.10;12.37;;;7.90;99.90;;;;;;5008528;28;20199;-70
2022/09/29 04:45:02;;;;;;;18.93;12.60;;;7.90;99.90;;;;;;5017167;28;20202;-71
2022/09/29 04:47:29;;;;;;;19.13;12.53;;;7.80;99.90;;;;;;4997272;28;20196;-72
2022/09/29 04:49:56;;;;;;;19.80;12.53;;;7.80;99.90;;;;;;4996880;28;20249;-72
2022/09/29 04:52:23;;;;;;;20.20;11.70;;;7.80;99.90;;;;;;4997080;28;20195;-71
2022/09/29 04:54:50;;;;;;;18.00;11.67;;;7.80;99.90;;;;;;4996637;28;20207;-71
2022/09/29 04:57:16;;;;;;;17.97;11.77;;;7.80;99.90;;;;;;4996523;28;20646;-71
2022/09/29 04:59:43;;;;;;;21.50;12.20;;;7.70;99.90;;;;;;4997039;28;20196;-72
2022/09/29 05:02:10;;;;;;;19.50;12.13;;;7.70;99.90;;;;;;4996500;28;20294;-75
2022/09/29 05:04:37;;;;;;;20.80;11.70;;;7.80;99.90;;;;;;4995913;28;20214;-79
2022/09/29 05:07:04;;;;;;;21.60;12.13;;;7.70;99.90;;;;;;4996233;28;20272;-72
2022/09/29 05:09:31;;;;;;;21.37;12.97;;;7.60;99.90;;;;;;4996543;28;20202;-72
2022/09/29 05:12:00;;;;;;;20.83;12.27;;;7.60;99.90;;;;;;4996445;28;20199;-83
2022/09/29 05:14:27;;;;;;;23.20;13.10;;;7.70;99.90;;;;;;4996238;28;20614;-83
2022/09/29 05:16:55;;;;;;;21.57;12.23;;;7.80;99.90;;;;;;4996375;28;20600;-72
2022/09/29 05:19:22;;;;;;;18.83;11.77;;;7.90;99.90;;;;;;4996365;28;20328;-72
2022/09/29 05:21:49;;;;;;;21.30;11.90;;;7.90;99.90;;;;;;5001505;28;20229;-72
2022/09/29 05:24:16;;;;;;;22.20;12.77;;;8.00;99.90;;;;;;4995936;28;20204;-73
2022/09/29 05:26:43;;;;;;;20.53;11.90;;;7.90;99.90;;;;;;5009351;28;20586;-73
2022/09/29 05:29:10;;;;;;;21.83;12.93;;;8.00;99.90;;;;;;5015782;28;20608;-68
2022/09/29 05:31:37;;;;;;;22.53;12.07;;;8.00;99.90;;;;;;5015866;28;20223;-71
2022/09/29 05:34:04;;;;;;;19.23;11.73;;;8.00;99.90;;;;;;5015461;28;20193;-70
2022/09/29 05:36:31;;;;;;;20.00;12.10;;;8.00;99.90;;;;;;5015537;28;20663;-71
2022/09/29 05:38:58;;;;;;;20.00;11.57;;;8.00;99.90;;;;;;5015397;28;20203;-72
2022/09/29 05:41:25;;;;;;;21.93;12.30;;;7.90;99.90;;;;;;5033446;28;20580;-71
2022/09/29 05:43:54;;;;;;;20.63;12.13;;;7.90;99.90;;;;;;5015134;28;20217;-72
2022/09/29 05:46:22;;;;;;;18.07;11.47;;;8.00;99.90;;;;;;5032630;28;20582;-71
2022/09/29 05:48:52;;;;;;;20.13;11.53;;;8.00;99.90;;;;;;5015801;28;20191;-75
2022/09/29 05:51:21;;;;;;;18.67;11.30;;;8.10;99.90;;;;;;5001493;28;20203;-75
2022/09/29 05:53:49;;;;;;;19.57;11.53;;;8.20;99.90;;;;;;4996170;28;20195;-72
2022/09/29 05:56:18;;;;;;;19.17;10.97;;;8.20;99.90;;;;;;4995896;28;20207;-72
2022/09/29 05:58:45;;;;;;;19.93;11.87;;;8.20;99.90;;;;;;5013132;28;20205;-74
2022/09/29 06:01:15;;;;;;;20.73;12.20;;;8.20;99.90;;;;;;4979389;28;20199;-77
2022/09/29 06:03:42;;;;;;;19.53;12.00;;;8.30;99.90;;;;;;4998051;28;20251;-78
2022/09/29 06:06:12;;;;;;;18.10;11.03;;;8.30;99.90;;;;;;4996514;28;20290;-72
2022/09/29 06:08:39;;;;;;;18.87;10.37;;;8.40;99.90;;;;;;5029455;28;20557;-78
2022/09/29 06:11:12;;;;;;;19.87;11.57;;;8.40;99.90;;;;;;5015167;28;20207;-73
2022/09/29 06:13:41;;;;;;;19.20;11.03;;;8.50;99.90;;;;;;5015180;28;20203;-72
2022/09/29 06:16:09;;;;;;;18.47;10.50;;;8.40;99.90;;;;;;5014784;28;20202;-72
2022/09/29 06:18:36;;;;;;;20.23;11.90;;;8.40;99.90;;;;;;5018868;28;20199;-72
2022/09/29 06:21:09;;;;;;;18.43;11.00;;;8.50;99.90;;;;;;5023239;28;20202;-73
2022/09/29 06:23:37;;;;;;;18.33;11.37;;;8.60;99.90;;;;;;5021742;28;20237;-75
2022/09/29 06:26:08;;;;;;;19.07;11.70;;;8.70;99.90;;;;;;5022251;28;20216;-73
2022/09/29 06:28:36;;;;;;;18.03;11.90;;;8.80;99.90;;;;;;5017099;28;20199;-72
2022/09/29 06:31:06;;;;;;;21.33;11.50;;;8.90;99.90;;;;;;5000951;28;20261;-73
2022/09/29 06:33:35;;;;;;;17.97;11.20;;;8.90;99.90;;;;;;4999083;28;20259;-73
2022/09/29 06:38:56;;;;;;;18.17;11.37;;;8.90;99.90;;;;;;5020821;28;20653;-72
2022/09/29 06:41:23;;;;;;;17.83;10.90;;;8.80;99.90;;;;;;5004443;28;20215;-73
2022/09/29 06:43:49;;;;;;;19.53;11.53;;;8.80;99.90;;;;;;5018548;28;20644;-76
2022/09/29 06:46:16;;;;;;;17.67;11.17;;;8.90;99.90;;;;;;5036699;28;20620;-78
2022/09/29 06:48:44;;;;;;;18.37;11.63;;;8.80;99.90;;;;;;5039411;28;20199;-72
2022/09/29 06:51:11;;;;;;;18.47;11.17;;;8.80;99.90;;;;;;5017903;28;20199;-73
2022/09/29 06:53:37;;;;;;;17.87;11.40;;;8.90;99.90;;;;;;5025057;28;20600;-73
2022/09/29 06:56:05;;;;;;;18.43;11.57;;;8.70;99.90;;;;;;5035742;28;20643;-72
2022/09/29 06:58:32;;;;;;;19.17;10.43;;;8.70;99.90;;;;;;5018740;28;20213;-71
2022/09/29 07:01:01;;;;;;;17.53;10.73;;;8.90;99.90;;;;;;5006604;28;20242;-74
2022/09/29 07:03:28;;;;;;;15.43;10.10;;;8.80;99.90;;;;;;5012735;28;20199;-73
2022/09/29 07:05:55;;;;;;;17.50;10.70;;;8.70;99.90;;;;;;5006935;28;20228;-79
2022/09/29 07:08:42;;;;;;;16.10;10.20;;;8.70;99.90;;;;;;5003117;28;20187;-75
2022/09/29 07:11:10;;;;;;;15.17;9.90;;;8.80;99.90;;;;;;5006381;28;20191;-70
2022/09/29 07:13:37;;;;;;;17.40;10.40;;;8.80;99.90;;;;;;5028574;28;20195;-77
2022/09/29 07:16:10;;;;;;;17.77;10.53;;;9.00;99.90;;;;;;5033763;28;20210;-73
2022/09/29 07:18:39;;;;;;;15.10;9.57;;;9.00;99.90;;;;;;5018118;28;20253;-72
2022/09/29 07:21:09;;;;;;;12.77;8.80;;;9.10;99.90;;;;;;5018195;28;20199;-72
2022/09/29 07:23:37;;;;;;;14.87;9.07;;;9.00;99.90;;;;;;5017930;28;20200;-72
2022/09/29 07:26:05;;;;;;;18.07;11.27;;;8.90;99.90;;;;;;5017617;28;20191;-72
2022/09/29 07:28:33;;;;;;;13.73;9.03;;;9.00;99.90;;;;;;5011157;28;20204;-71
2022/09/29 07:31:06;;;;;;;14.50;9.27;;;9.20;99.90;;;;;;5006230;28;20207;-72
2022/09/29 07:33:42;;;;;;;14.03;9.17;;;9.20;99.90;;;;;;4998049;28;20282;-74
2022/09/29 07:36:09;;;;;;;13.97;9.00;;;9.20;99.90;;;;;;5018423;28;20207;-72
2022/09/29 07:38:36;;;;;;;13.00;8.60;;;9.20;99.90;;;;;;5015618;28;20183;-73
2022/09/29 07:41:09;;;;;;;12.70;8.57;;;9.20;99.90;;;;;;4998010;28;20258;-71
2022/09/29 07:43:37;;;;;;;14.00;9.23;;;9.20;99.90;;;;;;5015756;28;20192;-71
2022/09/29 07:46:04;;;;;;;16.80;8.50;;;9.30;99.90;;;;;;5014108;28;20199;-71
2022/09/29 07:48:32;;;;;;;12.63;8.70;;;9.30;99.90;;;;;;5017373;28;20195;-73
2022/09/29 07:51:19;;;;;;;13.00;8.40;;;9.30;99.90;;;;;;5011068;28;20257;-72
2022/09/29 07:53:47;;;;;;;13.87;8.43;;;9.50;99.90;;;;;;5023944;28;20234;-73
2022/09/29 07:56:19;;;;;;;12.77;8.30;;;9.70;99.90;;;;;;5039602;28;20203;-76
2022/09/29 07:58:50;;;;;;;11.50;7.97;;;9.40;99.90;;;;;;5031256;28;20199;-77
2022/09/29 08:01:18;;;;;;;12.00;8.63;;;9.60;99.90;;;;;;5054658;28;20192;-74
2022/09/29 08:03:51;;;;;;;13.57;8.20;;;9.40;99.90;;;;;;5054967;28;20185;-74
2022/09/29 08:06:18;;;;;;;12.30;8.53;;;9.50;99.90;;;;;;5036681;28;20249;-77
2022/09/29 08:08:46;;;;;;;14.23;8.53;;;9.60;99.90;;;;;;5055025;28;20194;-75
2022/09/29 08:11:29;;;;;;;13.00;8.90;;;9.70;99.90;;;;;;5037211;28;20213;-78
2022/09/29 08:14:05;;;;;;;12.00;8.40;;;9.80;99.90;;;;;;5023549;28;20195;-74
2022/09/29 08:16:33;;;;;;;11.00;7.63;;;9.90;99.90;;;;;;5006804;28;20208;-75
2022/09/29 08:19:03;;;;;;;11.73;7.70;;;10.00;99.90;;;;;;4997725;28;20214;-73
2022/09/29 08:21:35;;;;;;;11.63;8.03;;;10.10;99.90;;;;;;5013605;28;20224;-76
2022/09/29 08:24:03;;;;;;;13.10;7.50;;;10.20;99.90;;;;;;4997358;28;20200;-78
2022/09/29 08:26:36;;;;;;;11.73;8.13;;;10.10;99.90;;;;;;5031864;28;20643;-74
2022/09/29 08:29:11;;;;;;;12.70;8.30;;;10.10;99.90;;;;;;5054399;28;20197;-77
2022/09/29 08:31:43;;;;;;;12.93;8.63;;;10.20;99.90;;;;;;5020393;28;20671;-75
2022/09/29 08:34:10;;;;;;;12.53;8.83;;;10.30;99.90;;;;;;5036582;28;20191;-75
2022/09/29 08:36:37;;;;;;;11.30;7.83;;;10.40;99.90;;;;;;5025082;28;20207;-74
2022/09/29 08:39:04;;;;;;;11.37;7.73;;;10.10;99.90;;;;;;5016162;28;20205;-76
2022/09/29 08:42:12;;;;;;;11.50;8.27;;;10.00;99.90;;;;;;5014532;28;20261;-73
2022/09/29 08:45:13;;;;;;;11.27;7.30;;;10.10;99.90;;;;;;5029999;28;20569;-78
2022/09/29 08:48:17;;;;;;;13.17;7.63;;;10.20;99.90;;;;;;4938109;29;20233;-77
2022/09/29 08:51:33;;;;;;;12.83;8.47;;;10.10;99.90;;;;;;4936780;29;20375;-77
2022/09/29 08:54:41;;;;;;;14.90;9.03;;;10.10;99.90;;;;;;4841546;29;20205;-75
2022/09/29 08:57:18;;;;;;;13.93;9.30;;;9.90;99.90;;;;;;4789778;29;20212;-75
2022/09/29 08:59:55;;;;;;;12.70;9.17;;;9.80;99.90;;;;;;4788674;29;21242;-75
2022/09/29 09:02:29;;;;;;;12.10;8.80;;;9.90;99.90;;;;;;4789607;29;20227;-75
2022/09/29 09:05:14;;;;;;;11.83;8.63;;;9.80;99.90;;;;;;4803317;29;20934;-74
2022/09/29 09:07:50;;;;;;;13.50;8.83;;;10.00;99.90;;;;;;4775982;30;20231;-74
2022/09/29 09:10:41;;;;;;;11.93;8.47;;;9.90;99.90;;;;;;4787950;29;20758;-78
2022/09/29 09:13:51;;;;;;;12.13;8.27;;;9.90;99.90;;;;;;4794739;29;20697;-80
2022/09/29 09:20:13;;;;;;;10.27;7.73;;;10.10;99.90;;;;;;5013008;23;20737;-79
2022/09/29 09:23:00;;;;;;;11.53;8.10;;;10.30;99.90;;;;;;4993514;28;20267;-79
2022/09/29 09:26:05;;;;;;;13.67;7.70;;;10.20;99.90;;;;;;5008103;23;20244;-80
2022/09/29 09:28:47;;;;;;;12.07;7.93;;;10.30;99.90;;;;;;5068354;23;20227;-80
2022/09/29 09:37:07;;;;;;;10.50;7.87;;;10.80;99.90;;;;;;4993136;23;20233;-76
2022/09/29 09:40:13;;;;;;;11.60;7.70;;;10.80;99.90;;;;;;4957230;28;20200;-80
2022/09/29 09:42:45;;;;;;;11.73;7.77;;;10.90;99.90;;;;;;4931315;29;20203;-78
2022/09/29 09:45:39;;;;;;;9.73;7.23;;;10.70;99.90;;;;;;4931979;29;20202;-78
2022/09/29 09:48:24;;;;;;;11.00;7.77;;;10.70;99.90;;;;;;4931330;29;20620;-79
2022/09/29 09:51:37;;;;;;;10.90;7.50;;;10.80;99.90;;;;;;4949756;23;20648;-80
2022/09/29 09:54:26;;;;;;;11.83;7.67;;;11.00;99.90;;;;;;4991770;28;20192;-78
2022/09/29 09:57:24;;;;;;;10.90;7.13;;;11.10;99.90;;;;;;4975641;28;20206;-79
2022/09/29 10:00:25;;;;;;;;;;;;;;;;;;;;;
2022/09/29 10:03:06;;;;;;;12.23;7.37;;;11.40;99.90;;;;;;4965551;23;20239;-78
2022/09/29 10:05:39;;;;;;;11.93;7.77;;;11.50;99.90;;;;;;4962080;28;20273;-79
2022/09/29 10:08:26;;;;;;;9.57;7.03;;;11.70;99.90;;;;;;4984268;23;20233;-78
2022/09/29 10:11:30;;;;;;;9.27;6.77;;;12.00;99.90;;;;;;4956629;28;20201;-78
2022/09/29 10:14:09;;;;;;;9.60;6.63;;;12.10;99.90;;;;;;4962772;28;20201;-77
2022/09/29 10:16:50;;;;;;;11.40;6.90;;;12.10;99.90;;;;;;4956637;28;20253;-78
2022/09/29 10:20:15;;;;;;;9.63;6.67;;;12.10;99.90;;;;;;4957089;28;20316;-76
2022/09/29 10:22:42;;;;;;;10.03;6.67;;;12.40;99.90;;;;;;4928965;29;20207;-77
2022/09/29 10:25:19;;;;;;;9.00;6.33;;;12.10;99.90;;;;;;4900196;29;20247;-77
2022/09/29 10:27:49;;;;;;;8.60;6.27;;;12.10;99.90;;;;;;4906167;29;20267;-78
2022/09/29 10:30:21;;;;;;;9.10;6.33;;;12.40;99.90;;;;;;4906576;29;20209;-76
2022/09/29 10:32:53;;;;;;;9.37;6.50;;;12.50;99.90;;;;;;4891272;29;20307;-74
2022/09/29 10:35:29;;;;;;;11.03;7.10;;;12.40;99.90;;;;;;4913609;29;20275;-81
2022/09/29 10:38:01;;;;;;;10.60;6.80;;;12.00;99.90;;;;;;4912722;29;20211;-83
2022/09/29 10:40:29;;;;;;;9.43;6.83;;;11.90;99.90;;;;;;4912614;29;20207;-81
2022/09/29 10:42:56;;;;;;;9.10;6.80;;;11.80;99.90;;;;;;4919383;29;20203;-77
2022/09/29 10:45:28;;;;;;;9.57;6.73;;;12.00;99.90;;;;;;4918000;29;20223;-81
2022/09/29 10:47:58;;;;;;;8.83;6.77;;;11.80;99.90;;;;;;4901095;29;20231;-79
2022/09/29 10:50:35;;;;;;;11.67;7.57;;;11.90;99.90;;;;;;4912792;29;20622;-75
2022/09/29 10:53:33;;;;;;;8.53;6.70;;;11.90;99.90;;;;;;4912295;29;20250;-76
2022/09/29 10:56:24;;;;;;;9.03;6.60;;;12.00;99.90;;;;;;4909284;29;20661;-75
2022/09/29 10:58:59;;;;;;;8.17;6.73;;;12.10;99.90;;;;;;4906820;29;20199;-76
2022/09/29 11:01:52;;;;;;;7.40;6.30;;;12.10;99.90;;;;;;4917674;29;20211;-74
2022/09/29 11:04:38;;;;;;;8.57;6.70;;;11.80;99.90;;;;;;4937498;29;20195;-79
2022/09/29 11:07:10;;;;;;;10.37;7.23;;;12.00;99.90;;;;;;4969113;23;20259;-78
2022/09/29 11:09:40;;;;;;;9.87;7.20;;;12.10;99.90;;;;;;4978994;28;20204;-80
2022/09/29 11:12:38;;;;;;;11.40;7.20;;;12.10;99.90;;;;;;4978951;28;20611;-79
2022/09/29 11:15:43;;;;;;;9.47;6.33;;;12.40;99.90;;;;;;4978912;28;20200;-78
2022/09/29 11:28:50;;;;;;;9.83;6.37;;;14.40;99.90;;;;;;4913975;29;20235;-81
2022/09/29 11:32:01;;;;;;;8.00;6.43;;;14.30;99.90;;;;;;4912584;29;20204;-78
2022/09/29 11:34:47;;;;;;;11.77;6.57;;;14.40;99.90;;;;;;4921625;29;20287;-78
2022/09/29 11:37:32;;;;;;;7.57;6.17;;;14.10;99.90;;;;;;4910439;29;20200;-76
2022/09/29 11:43:17;;;;;;;9.77;7.00;;;14.40;99.90;;;;;;4936784;23;20693;-76
2022/09/29 11:46:12;;;;;;;8.90;6.90;;;15.10;99.90;;;;;;4901935;29;20638;-81
2022/09/29 11:48:59;;;;;;;10.80;7.50;;;15.10;99.90;;;;;;4858667;29;20324;-77
2022/09/29 11:51:33;;;;;;;9.60;7.50;;;15.40;99.90;;;;;;4862350;29;20546;-77
2022/09/29 11:54:44;;;;;;;9.40;6.83;;;15.60;99.90;;;;;;4865142;29;20220;-76
2022/09/29 11:57:57;;;;;;;10.93;6.80;;;16.60;99.90;;;;;;4860255;29;20217;-77
2022/09/29 12:00:45;;;;;;;8.90;7.00;;;17.10;99.90;;;;;;4850131;29;20276;-77
2022/09/29 12:03:32;;;;;;;9.43;6.83;;;17.90;99.90;;;;;;4863497;29;20224;-77
2022/09/29 12:10:43;;;;;;;7.77;6.87;;;18.30;99.90;;;;;;4919905;29;20220;-85
2022/09/29 12:13:50;;;;;;;9.30;6.70;;;18.30;99.90;;;;;;4910240;29;20200;-81
2022/09/29 12:16:29;;;;;;;7.37;6.33;;;17.90;99.90;;;;;;4820737;29;20207;-80
2022/09/29 12:25:57;;;;;;;10.00;7.10;;;16.70;99.90;;;;;;4880534;29;20220;-82
2022/09/29 12:28:38;;;;;;;10.90;7.80;;;15.90;99.90;;;;;;4915649;29;20639;-81
2022/09/29 12:31:51;;;;;;;10.17;7.77;;;15.50;99.90;;;;;;4913911;29;20219;-82
2022/09/29 12:34:43;;;;;;;10.53;7.83;;;15.60;99.90;;;;;;4910353;29;20313;-79
2022/09/29 12:41:04;;;;;;;9.50;7.00;;;15.20;99.90;;;;;;4877685;29;20211;-80
2022/09/29 12:47:11;;;;;;;11.37;7.33;;;14.70;99.90;;;;;;4881282;29;20193;-77
2022/09/29 12:50:15;;;;;;;9.20;6.93;;;14.30;99.90;;;;;;4880351;29;20700;-79
2022/09/29 12:53:16;;;;;;;8.87;6.97;;;14.20;99.90;;;;;;4791174;29;20207;-81
2022/09/29 12:56:23;;;;;;;10.77;7.60;;;14.20;99.90;;;;;;4789771;29;20218;-80
2022/09/29 12:59:59;;;;;;;;;;;;;;;;;;;;;
2022/09/29 13:16:22;;;;;;;10.53;7.50;;;13.70;99.90;;;;;;5037974;23;20689;-83
2022/09/29 13:19:16;;;;;;;11.63;8.10;;;13.90;99.90;;;;;;4911999;29;20200;-77
2022/09/29 13:21:58;;;;;;;10.10;7.57;;;14.20;99.90;;;;;;4903107;29;20203;-80
2022/09/29 13:24:49;;;;;;;11.43;8.00;;;14.20;99.90;;;;;;4905863;29;20215;-80
2022/09/29 13:27:48;;;;;;;10.90;8.40;;;14.20;99.90;;;;;;4899177;29;20237;-86
2022/09/29 13:30:28;;;;;;;10.80;8.10;;;14.00;99.90;;;;;;4915061;29;20208;-82
2022/09/29 13:33:09;;;;;;;10.40;8.27;;;13.80;99.90;;;;;;4899922;29;20227;-79
2022/09/29 13:35:42;;;;;;;10.70;7.97;;;13.70;99.90;;;;;;4916862;29;20195;-79
2022/09/29 13:38:23;;;;;;;19.50;10.33;;;13.60;99.90;;;;;;4906191;29;21025;-80
2022/09/29 13:41:09;;;;;;;10.73;8.30;;;13.80;99.90;;;;;;4905352;29;20300;-75
2022/09/29 13:43:52;;;;;;;18.23;12.97;;;13.80;99.90;;;;;;4886256;29;20200;-78
2022/09/29 13:46:30;;;;;;;17.70;12.90;;;14.00;99.90;;;;;;4882558;29;20294;-77
2022/09/29 13:49:12;;;;;;;19.30;13.57;;;14.10;99.90;;;;;;4904271;29;20275;-77
2022/09/29 13:51:43;;;;;;;27.13;19.40;;;14.10;99.90;;;;;;4915549;29;20206;-78
2022/09/29 13:54:19;;;;;;;14.17;11.10;;;14.00;99.90;;;;;;4915404;29;20195;-76
2022/09/29 13:57:15;;;;;;;10.90;8.77;;;14.00;99.90;;;;;;4903561;29;20204;-85
2022/09/29 13:59:46;;;;;;;14.80;11.30;;;14.00;99.90;;;;;;4897705;29;20195;-80
2022/09/29 14:02:34;;;;;;;10.63;7.77;;;14.10;99.90;;;;;;4921137;23;20230;-79
2022/09/29 14:05:03;;;;;;;14.77;11.23;;;14.10;99.90;;;;;;4934072;29;20337;-78
2022/09/29 14:07:49;;;;;;;13.87;11.53;;;14.30;99.90;;;;;;4922226;29;20241;-80
2022/09/29 14:10:23;;;;;;;12.87;10.47;;;14.40;99.90;;;;;;4909340;23;20239;-78
2022/09/29 14:13:17;;;;;;;9.20;7.57;;;14.40;99.90;;;;;;4899472;29;20195;-78
2022/09/29 14:16:25;;;;;;;10.47;9.00;;;14.30;99.90;;;;;;4912706;29;20204;-80
2022/09/29 14:19:25;;;;;;;15.80;11.93;;;14.30;99.90;;;;;;4895305;29;20289;-79
2022/09/29 14:28:55;;;;;;;12.30;8.50;;;14.00;99.90;;;;;;4785672;30;20219;-82
2022/09/29 14:31:37;;;;;;;11.17;8.47;;;13.70;99.90;;;;;;4797987;29;20226;-80